createdAt,value
2019-01-17T00:00:00.917Z,4.87
2019-01-17T00:02:55.388Z,5.17
2019-01-17T00:05:36.702Z,5.10
2019-01-17T00:08:25.220Z,5.00
2019-01-17T00:11:00.678Z,5.33
2019-01-17T00:13:52.462Z,4.97
2019-01-17T00:16:53.250Z,5.67
2019-01-17T00:19:47.742Z,5.00
2019-01-17T00:22:28.086Z,5.30
2019-01-17T00:25:26.168Z,5.20
2019-01-17T00:28:14.916Z,5.50
2019-01-17T00:31:19.132Z,5.73
2019-01-17T00:34:03.524Z,5.80
2019-01-17T00:36:47.940Z,5.83
2019-01-17T00:39:31.410Z,5.00
2019-01-17T00:42:09.787Z,5.67
2019-01-17T00:44:58.385Z,5.27
2019-01-17T00:47:45.853Z,6.20
2019-01-17T00:50:26.343Z,5.13
2019-01-17T00:53:17.717Z,5.10
2019-01-17T00:56:00.170Z,5.00
2019-01-17T00:59:01.245Z,5.40
2019-01-17T01:01:53.449Z,5.40
2019-01-17T01:04:41.975Z,5.17
2019-01-17T01:07:23.277Z,6.10
2019-01-17T01:10:11.220Z,5.50
2019-01-17T01:12:58.535Z,5.43
2019-01-17T01:15:47.121Z,5.37
2019-01-17T01:18:27.746Z,5.73
2019-01-17T01:21:12.216Z,5.47
2019-01-17T01:24:00.168Z,4.93
2019-01-17T01:26:56.809Z,4.73
2019-01-17T01:29:37.619Z,5.97
2019-01-17T01:32:28.478Z,5.40
2019-01-17T01:35:15.567Z,5.50
2019-01-17T01:38:03.124Z,5.20
2019-01-17T01:40:50.454Z,4.63
2019-01-17T01:43:45.315Z,5.47
2019-01-17T01:46:40.064Z,5.13
2019-01-17T01:49:17.772Z,4.53
2019-01-17T01:52:12.286Z,5.03
2019-01-17T01:54:41.737Z,5.53
2019-01-17T01:57:11.210Z,5.37
2019-01-17T01:59:40.680Z,5.60
2019-01-17T02:02:10.173Z,5.23
2019-01-17T02:04:39.583Z,5.17
2019-01-17T02:07:09.007Z,4.43
2019-01-17T02:09:38.770Z,5.47
2019-01-17T02:12:08.264Z,5.03
2019-01-17T02:14:37.814Z,5.23
2019-01-17T02:17:07.392Z,5.67
2019-01-17T02:19:36.779Z,5.40
2019-01-17T02:22:06.261Z,4.70
2019-01-17T02:24:35.739Z,4.90
2019-01-17T02:27:05.243Z,4.97
2019-01-17T02:29:34.673Z,4.57
2019-01-17T02:32:04.083Z,4.73
2019-01-17T02:34:33.570Z,4.60
2019-01-17T02:37:03.003Z,5.07
2019-01-17T02:39:32.737Z,5.17
2019-01-17T02:42:02.205Z,5.00
2019-01-17T02:44:31.699Z,5.00
2019-01-17T02:47:03.573Z,5.37
2019-01-17T02:49:33.055Z,5.50
2019-01-17T02:52:02.551Z,4.80
2019-01-17T02:54:35.716Z,4.50
2019-01-17T02:57:03.080Z,5.27
2019-01-17T02:59:32.487Z,5.33
2019-01-17T03:02:01.879Z,5.30
2019-01-17T03:04:31.299Z,5.00
2019-01-17T03:07:00.692Z,5.17
2019-01-17T03:09:30.129Z,5.30
2019-01-17T03:11:59.535Z,4.97
2019-01-17T03:14:29.010Z,5.30
2019-01-17T03:16:58.432Z,5.37
2019-01-17T03:19:27.877Z,4.63
2019-01-17T03:21:57.278Z,4.90
2019-01-17T03:24:26.690Z,4.90
2019-01-17T03:26:56.136Z,5.07
2019-01-17T03:29:25.631Z,5.23
2019-01-17T03:31:55.069Z,4.87
2019-01-17T03:34:24.478Z,4.50
2019-01-17T03:36:53.882Z,4.53
2019-01-17T03:39:23.403Z,5.00
2019-01-17T03:41:52.810Z,4.93
2019-01-17T03:44:22.306Z,5.00
2019-01-17T03:46:51.702Z,4.80
2019-01-17T03:49:21.255Z,5.67
2019-01-17T03:51:50.642Z,4.60
2019-01-17T03:54:20.065Z,4.73
2019-01-17T03:56:49.572Z,5.77
2019-01-17T03:59:19.015Z,4.70
2019-01-17T04:01:48.459Z,5.10
2019-01-17T04:04:17.990Z,5.63
2019-01-17T04:06:47.410Z,5.33
2019-01-17T04:09:16.849Z,5.13
2019-01-17T04:11:46.251Z,4.47
2019-01-17T04:14:15.712Z,5.17
2019-01-17T04:16:45.131Z,4.83
2019-01-17T04:19:14.585Z,5.70
2019-01-17T04:21:44.042Z,5.33
2019-01-17T04:24:13.930Z,5.60
2019-01-17T04:26:43.455Z,5.37
2019-01-17T04:29:12.947Z,4.70
2019-01-17T04:31:42.379Z,5.60
2019-01-17T04:34:11.768Z,5.37
2019-01-17T04:36:41.261Z,5.00
2019-01-17T04:39:10.659Z,5.40
2019-01-17T04:41:40.092Z,5.00
2019-01-17T04:44:09.502Z,4.83
2019-01-17T04:46:38.947Z,5.60
2019-01-17T04:49:08.457Z,5.13
2019-01-17T04:51:37.907Z,4.80
2019-01-17T04:54:07.317Z,5.30
2019-01-17T04:56:36.762Z,5.30
2019-01-17T04:59:06.179Z,5.80
2019-01-17T05:01:35.603Z,4.97
2019-01-17T05:04:05.167Z,4.70
2019-01-17T05:06:34.636Z,5.47
2019-01-17T05:09:06.198Z,5.47
2019-01-17T05:11:35.617Z,5.07
2019-01-17T05:14:05.115Z,5.53
2019-01-17T05:16:34.530Z,5.23
2019-01-17T05:19:04.010Z,5.30
2019-01-17T05:21:33.431Z,5.20
2019-01-17T05:24:03.079Z,4.40
2019-01-17T05:26:32.491Z,4.73
2019-01-17T05:29:01.962Z,4.97
2019-01-17T05:31:31.364Z,5.23
2019-01-17T05:34:00.795Z,4.80
2019-01-17T05:36:30.614Z,5.33
2019-01-17T05:39:00.267Z,5.33
2019-01-17T05:41:29.672Z,5.23
2019-01-17T05:43:59.096Z,5.30
2019-01-17T05:46:28.490Z,4.73
2019-01-17T05:48:57.973Z,5.17
2019-01-17T05:51:27.370Z,4.90
2019-01-17T05:53:56.788Z,4.67
2019-01-17T05:56:26.298Z,5.00
2019-01-17T05:58:55.760Z,4.60
2019-01-17T06:01:25.235Z,4.97
2019-01-17T06:03:54.637Z,4.50
2019-01-17T06:06:24.060Z,4.77
2019-01-17T06:08:53.549Z,4.60
2019-01-17T06:11:22.969Z,4.40
2019-01-17T06:13:52.460Z,4.60
2019-01-17T06:16:21.889Z,4.53
2019-01-17T06:18:51.633Z,4.30
2019-01-17T06:21:21.139Z,4.60
2019-01-17T06:23:50.627Z,3.60
2019-01-17T06:26:20.099Z,4.63
2019-01-17T06:28:49.509Z,4.13
2019-01-17T06:31:19.009Z,4.50
2019-01-17T06:33:48.431Z,4.33
2019-01-17T06:36:18.097Z,4.27
2019-01-17T06:38:49.429Z,4.37
2019-01-17T06:41:18.943Z,4.60
2019-01-17T06:43:48.385Z,4.47
2019-01-17T06:46:17.793Z,4.27
2019-01-17T06:48:47.359Z,4.23
2019-01-17T06:51:16.860Z,4.17
2019-01-17T06:53:46.658Z,4.10
2019-01-17T06:56:16.063Z,4.33
2019-01-17T06:58:45.533Z,3.73
2019-01-17T07:01:15.050Z,3.80
2019-01-17T07:03:44.565Z,3.57
2019-01-17T07:06:14.061Z,4.10
2019-01-17T07:08:43.471Z,3.50
2019-01-17T07:11:12.881Z,3.83
2019-01-17T07:13:42.400Z,3.60
2019-01-17T07:16:11.810Z,3.60
2019-01-17T07:18:41.235Z,3.57
2019-01-17T07:21:10.689Z,3.47
2019-01-17T07:23:40.127Z,4.10
2019-01-17T07:26:09.590Z,4.07
2019-01-17T07:28:39.033Z,3.77
2019-01-17T07:31:08.616Z,3.43
2019-01-17T07:33:38.038Z,3.53
2019-01-17T07:36:07.434Z,3.27
2019-01-17T07:38:36.870Z,3.70
2019-01-17T07:41:06.286Z,3.53
2019-01-17T07:43:35.746Z,3.37
2019-01-17T07:46:05.238Z,3.80
2019-01-17T07:48:34.661Z,3.53
2019-01-17T07:51:04.419Z,3.27
2019-01-17T07:53:33.843Z,3.33
2019-01-17T07:56:03.315Z,3.50
2019-01-17T07:58:32.730Z,3.20
2019-01-17T08:01:02.325Z,3.97
2019-01-17T08:03:31.759Z,3.33
2019-01-17T08:06:01.171Z,3.50
2019-01-17T08:08:30.667Z,3.53
2019-01-17T08:11:00.119Z,3.30
2019-01-17T08:13:29.529Z,3.50
2019-01-17T08:15:58.964Z,3.83
2019-01-17T08:18:28.435Z,3.60
2019-01-17T08:20:57.929Z,3.37
2019-01-17T08:23:27.424Z,3.30
2019-01-17T08:25:56.921Z,3.37
2019-01-17T08:28:26.331Z,3.40
2019-01-17T08:30:55.806Z,3.33
2019-01-17T08:33:25.215Z,3.13
2019-01-17T08:35:54.639Z,3.17
2019-01-17T08:38:24.121Z,3.17
2019-01-17T08:40:53.551Z,3.03
2019-01-17T08:43:23.110Z,2.97
2019-01-17T08:45:52.571Z,3.47
2019-01-17T08:48:22.002Z,2.87
2019-01-17T08:50:51.748Z,3.27
2019-01-17T08:53:21.150Z,3.00
2019-01-17T08:55:50.626Z,3.00
2019-01-17T08:58:20.040Z,3.40
2019-01-17T09:00:49.553Z,2.90
2019-01-17T09:03:19.074Z,2.90
2019-01-17T09:05:48.538Z,2.80
2019-01-17T09:08:18.066Z,2.90
2019-01-17T09:10:47.597Z,2.90
2019-01-17T09:13:17.170Z,2.93
2019-01-17T09:15:46.568Z,3.00
2019-01-17T09:18:16.044Z,2.90
2019-01-17T09:20:45.539Z,2.83
2019-01-17T09:23:15.069Z,3.03
2019-01-17T09:25:44.574Z,3.90
2019-01-17T09:28:14.017Z,3.03
2019-01-17T09:30:43.594Z,2.87
2019-01-17T09:33:13.165Z,3.00
2019-01-17T09:35:43.476Z,3.73
2019-01-17T09:38:13.093Z,2.83
2019-01-17T09:40:42.575Z,2.80
2019-01-17T09:43:11.979Z,3.07
2019-01-17T09:45:41.399Z,2.87
2019-01-17T09:48:10.903Z,2.97
2019-01-17T09:50:40.359Z,2.63
2019-01-17T09:53:09.903Z,3.00
2019-01-17T09:55:39.309Z,2.87
2019-01-17T09:58:08.728Z,2.67
2019-01-17T10:00:38.187Z,2.80
2019-01-17T10:03:07.601Z,2.87
2019-01-17T10:05:36.995Z,3.10
2019-01-17T10:08:06.503Z,3.07
2019-01-17T10:10:35.951Z,2.77
2019-01-17T10:13:05.346Z,2.33
2019-01-17T10:15:38.689Z,2.57
2019-01-17T10:18:47.445Z,2.53
2019-01-17T10:21:46.311Z,2.70
2019-01-17T10:25:03.164Z,2.40
2019-01-17T10:28:05.796Z,2.50
2019-01-17T10:30:44.028Z,2.40
2019-01-17T10:33:40.871Z,2.30
2019-01-17T10:36:51.390Z,2.17
2019-01-17T10:40:14.418Z,2.43
2019-01-17T10:43:06.821Z,2.30
2019-01-17T10:45:59.026Z,2.40
2019-01-17T10:49:01.459Z,2.03
2019-01-17T10:52:06.289Z,1.97
2019-01-17T10:55:00.277Z,2.37
2019-01-17T10:57:54.239Z,2.50
2019-01-17T11:00:52.237Z,2.20
2019-01-17T11:03:47.122Z,2.10
2019-01-17T11:06:59.892Z,2.03
2019-01-17T11:10:06.848Z,3.33
2019-01-17T11:13:11.466Z,2.20
2019-01-17T11:15:53.671Z,2.10
2019-01-17T11:18:54.395Z,1.90
2019-01-17T11:21:49.925Z,1.83
2019-01-17T11:24:58.159Z,2.23
2019-01-17T11:27:50.575Z,1.90
2019-01-17T11:31:05.810Z,1.90
2019-01-17T11:33:50.606Z,1.70
2019-01-17T11:36:38.975Z,1.63
2019-01-17T11:39:31.249Z,1.80
2019-01-17T11:42:31.118Z,1.80
2019-01-17T11:45:29.401Z,1.67
2019-01-17T11:48:27.458Z,1.70
2019-01-17T11:51:36.039Z,1.87
2019-01-17T11:54:30.038Z,1.90
2019-01-17T11:57:27.355Z,1.60
2019-01-17T12:00:35.444Z,1.70
2019-01-17T12:03:31.011Z,1.70
2019-01-17T12:06:00.424Z,1.80
2019-01-17T12:08:29.819Z,1.77
2019-01-17T12:10:59.340Z,1.67
2019-01-17T12:13:28.770Z,1.80
2019-01-17T12:15:58.221Z,1.63
2019-01-17T12:18:27.707Z,1.73
2019-01-17T12:20:57.357Z,1.90
2019-01-17T12:23:26.755Z,1.90
2019-01-17T12:25:56.252Z,1.83
2019-01-17T12:28:25.649Z,2.13
2019-01-17T12:30:55.096Z,1.90
2019-01-17T12:33:24.556Z,2.00
2019-01-17T12:35:54.058Z,1.90
2019-01-17T12:38:23.530Z,2.90
2019-01-17T12:40:53.076Z,2.30
2019-01-17T12:43:22.638Z,1.90
2019-01-17T12:45:52.172Z,1.83
2019-01-17T12:48:21.860Z,2.17
2019-01-17T12:50:51.270Z,1.87
2019-01-17T12:53:20.698Z,2.07
2019-01-17T12:55:50.140Z,2.20
2019-01-17T12:58:19.578Z,1.60
2019-01-17T13:00:49.053Z,1.77
2019-01-17T13:03:18.487Z,1.80
2019-01-17T13:05:47.895Z,1.80
2019-01-17T13:08:17.352Z,2.87
2019-01-17T13:10:46.865Z,1.57
2019-01-17T13:13:16.370Z,1.80
2019-01-17T13:15:45.920Z,1.80
2019-01-17T13:18:15.354Z,1.50
2019-01-17T13:20:44.996Z,1.47
2019-01-17T13:23:14.529Z,1.57
2019-01-17T13:25:44.177Z,1.57
2019-01-17T13:28:13.623Z,1.53
2019-01-17T13:30:43.089Z,1.50
2019-01-17T13:33:12.510Z,1.93
2019-01-17T13:35:41.923Z,1.40
2019-01-17T13:38:11.400Z,1.63
2019-01-17T13:40:40.801Z,1.40
2019-01-17T13:43:10.239Z,1.37
2019-01-17T13:45:39.707Z,1.30
2019-01-17T13:48:09.189Z,1.37
2019-01-17T13:50:39.455Z,1.70
2019-01-17T13:53:08.951Z,1.60
2019-01-17T13:55:38.392Z,1.37
2019-01-17T13:58:07.800Z,1.47
2019-01-17T14:00:37.341Z,1.40
2019-01-17T14:03:06.760Z,1.60
2019-01-17T14:05:36.345Z,1.50
2019-01-17T14:08:05.832Z,3.57
2019-01-17T14:10:35.226Z,1.97
2019-01-17T14:13:04.779Z,1.80
2019-01-17T14:15:34.193Z,1.60
2019-01-17T14:18:03.666Z,1.70
2019-01-17T14:20:33.116Z,1.60
2019-01-17T14:23:02.511Z,1.60
2019-01-17T14:25:32.012Z,1.50
2019-01-17T14:28:01.515Z,1.77
2019-01-17T14:30:32.495Z,1.50
2019-01-17T14:33:01.906Z,1.77
2019-01-17T14:35:31.400Z,1.40
2019-01-17T14:38:00.784Z,1.60
2019-01-17T14:40:30.308Z,1.90
2019-01-17T14:42:59.768Z,2.03
2019-01-17T14:45:29.170Z,1.80
2019-01-17T14:47:58.639Z,1.50
2019-01-17T14:50:30.202Z,2.00
2019-01-17T14:52:59.706Z,1.70
2019-01-17T14:55:29.247Z,2.00
2019-01-17T14:57:58.693Z,1.43
2019-01-17T15:00:30.522Z,1.57
2019-01-17T15:03:00.017Z,1.63
2019-01-17T15:05:29.587Z,2.03
2019-01-17T15:07:59.015Z,1.70
2019-01-17T15:10:31.489Z,1.37
2019-01-17T15:13:00.899Z,1.80
2019-01-17T15:15:30.387Z,2.00
2019-01-17T15:17:59.816Z,1.53
2019-01-17T15:20:29.231Z,1.60
2019-01-17T15:22:58.651Z,1.77
2019-01-17T15:25:28.039Z,1.73
2019-01-17T15:27:57.465Z,1.60
2019-01-17T15:30:27.009Z,1.70
2019-01-17T15:32:56.511Z,2.33
2019-01-17T15:35:25.914Z,2.00
2019-01-17T15:37:55.323Z,2.07
2019-01-17T15:40:26.867Z,1.80
2019-01-17T15:42:56.599Z,2.40
2019-01-17T15:45:26.063Z,2.03
2019-01-17T15:47:55.846Z,2.27
2019-01-17T15:50:25.424Z,2.17
2019-01-17T15:52:54.792Z,2.20
2019-01-17T15:55:24.307Z,2.13
2019-01-17T15:57:53.771Z,2.53
2019-01-17T16:00:28.811Z,2.17
2019-01-17T16:02:58.528Z,2.13
2019-01-17T16:05:28.232Z,2.57
2019-01-17T16:07:58.089Z,2.33
2019-01-17T16:10:27.626Z,2.57
2019-01-17T16:12:57.220Z,2.40
2019-01-17T16:15:27.861Z,2.30
2019-01-17T16:17:57.335Z,2.70
2019-01-17T16:20:26.796Z,2.20
2019-01-17T16:22:56.333Z,3.03
2019-01-17T16:25:25.824Z,2.27
2019-01-17T16:27:55.420Z,2.27
2019-01-17T16:30:29.955Z,2.10
2019-01-17T16:32:59.390Z,2.57
2019-01-17T16:35:28.820Z,2.40
2019-01-17T16:37:58.344Z,2.47
2019-01-17T16:40:27.808Z,2.13
2019-01-17T16:42:57.317Z,2.70
2019-01-17T16:45:26.992Z,2.17
2019-01-17T16:47:56.587Z,2.57
2019-01-17T16:50:26.975Z,2.07
2019-01-17T16:52:56.465Z,2.40
2019-01-17T16:55:25.995Z,2.60
2019-01-17T16:57:55.531Z,2.57
2019-01-17T17:00:39.883Z,2.47
2019-01-17T17:03:09.565Z,2.73
2019-01-17T17:05:39.035Z,2.20
2019-01-17T17:08:08.549Z,2.70
2019-01-17T17:10:38.140Z,2.80
2019-01-17T17:13:08.735Z,2.70
2019-01-17T17:15:38.267Z,2.53
2019-01-17T17:18:07.901Z,2.57
2019-01-17T17:20:37.529Z,2.10
2019-01-17T17:23:06.994Z,2.20
2019-01-17T17:25:36.398Z,2.43
2019-01-17T17:28:06.029Z,2.40
2019-01-17T17:30:35.467Z,2.43
2019-01-17T17:33:05.000Z,2.37
2019-01-17T17:35:34.441Z,2.50
2019-01-17T17:38:04.015Z,2.27
2019-01-17T17:40:33.409Z,2.13
2019-01-17T17:43:02.825Z,2.20
2019-01-17T17:45:33.759Z,2.43
2019-01-17T17:48:03.519Z,2.50
2019-01-17T17:50:33.022Z,2.10
2019-01-17T17:53:02.492Z,1.97
2019-01-17T17:55:31.878Z,2.03
2019-01-17T17:58:02.241Z,2.50
2019-01-17T18:01:00.366Z,2.27
2019-01-17T18:03:29.775Z,2.40
2019-01-17T18:05:59.170Z,2.60
2019-01-17T18:08:28.616Z,3.63
2019-01-17T18:10:58.131Z,2.17
2019-01-17T18:13:27.542Z,2.00
2019-01-17T18:15:56.978Z,1.90
2019-01-17T18:18:26.414Z,2.20
2019-01-17T18:20:55.841Z,2.50
2019-01-17T18:23:25.326Z,2.60
2019-01-17T18:25:54.794Z,2.80
2019-01-17T18:28:24.200Z,2.70
2019-01-17T18:30:53.656Z,2.90
2019-01-17T18:33:23.139Z,2.80
2019-01-17T18:35:53.002Z,3.03
2019-01-17T18:38:22.485Z,2.90
2019-01-17T18:40:51.899Z,2.67
2019-01-17T18:43:21.304Z,3.10
2019-01-17T18:45:50.747Z,3.40
2019-01-17T18:48:39.388Z,2.70
2019-01-17T18:51:08.901Z,2.43
2019-01-17T18:53:38.310Z,2.60
2019-01-17T18:56:07.970Z,3.00
2019-01-17T18:58:37.378Z,2.90
2019-01-17T19:01:06.801Z,3.10
2019-01-17T19:03:36.213Z,2.97
2019-01-17T19:06:06.236Z,2.47
2019-01-17T19:08:35.725Z,3.13
2019-01-17T19:11:05.419Z,3.20
2019-01-17T19:13:36.078Z,3.07
2019-01-17T19:16:05.905Z,3.50
2019-01-17T19:18:35.407Z,3.70
2019-01-17T19:21:04.911Z,3.40
2019-01-17T19:23:34.359Z,4.90
2019-01-17T19:26:04.363Z,3.60
2019-01-17T19:28:34.352Z,4.07
2019-01-17T19:31:03.871Z,3.50
2019-01-17T19:33:33.382Z,4.07
2019-01-17T19:36:02.794Z,4.10
2019-01-17T19:38:32.233Z,4.40
2019-01-17T19:41:01.853Z,4.80
2019-01-17T19:43:31.311Z,4.20
2019-01-17T19:46:00.842Z,4.97
2019-01-17T19:48:30.624Z,4.97
2019-01-17T19:51:00.108Z,5.10
2019-01-17T19:53:29.576Z,4.73
2019-01-17T19:55:59.094Z,4.83
2019-01-17T19:58:29.042Z,5.70
2019-01-17T20:00:58.726Z,5.83
2019-01-17T20:03:28.236Z,5.70
2019-01-17T20:05:57.750Z,5.20
2019-01-17T20:08:27.260Z,5.23
2019-01-17T20:10:56.736Z,4.93
2019-01-17T20:13:26.462Z,6.13
2019-01-17T20:15:55.918Z,5.10
2019-01-17T20:18:25.318Z,5.00
2019-01-17T20:20:54.915Z,4.57
2019-01-17T20:23:24.368Z,5.27
2019-01-17T20:25:53.875Z,4.77
2019-01-17T20:28:23.392Z,5.20
2019-01-17T20:30:52.792Z,4.47
2019-01-17T20:33:22.207Z,5.07
2019-01-17T20:35:51.679Z,4.70
2019-01-17T20:38:21.085Z,4.63
2019-01-17T20:40:50.545Z,4.47
2019-01-17T20:43:19.981Z,4.40
2019-01-17T20:45:49.435Z,4.30
2019-01-17T20:48:18.988Z,4.07
2019-01-17T20:50:48.575Z,4.30
2019-01-17T20:53:18.044Z,3.77
2019-01-17T20:55:47.549Z,4.60
2019-01-17T20:58:16.970Z,4.97
2019-01-17T21:01:05.951Z,4.63
2019-01-17T21:03:35.439Z,4.33
2019-01-17T21:06:04.855Z,4.63
2019-01-17T21:08:34.312Z,4.17
2019-01-17T21:11:03.813Z,4.03
2019-01-17T21:13:33.357Z,4.00
2019-01-17T21:16:03.025Z,3.73
2019-01-17T21:18:32.491Z,4.00
2019-01-17T21:21:02.010Z,3.50
2019-01-17T21:23:31.432Z,3.30
2019-01-17T21:26:00.890Z,4.73
2019-01-17T21:28:30.316Z,3.23
2019-01-17T21:30:59.725Z,2.80
2019-01-17T21:33:29.202Z,2.70
2019-01-17T21:35:58.658Z,3.53
2019-01-17T21:38:28.171Z,2.70
2019-01-17T21:40:57.602Z,1.80
2019-01-17T21:43:27.032Z,2.00
2019-01-17T21:45:56.459Z,1.97
2019-01-17T21:48:25.982Z,1.93
2019-01-17T21:50:55.390Z,2.33
2019-01-17T21:53:24.831Z,2.80
2019-01-17T21:55:54.241Z,3.70
2019-01-17T21:58:24.045Z,3.60
2019-01-17T22:00:53.626Z,3.60
2019-01-17T22:03:23.328Z,3.50
2019-01-17T22:05:52.802Z,3.80
2019-01-17T22:08:22.276Z,4.03
2019-01-17T22:10:51.836Z,3.70
2019-01-17T22:13:21.230Z,4.00
2019-01-17T22:15:50.667Z,4.13
2019-01-17T22:18:20.147Z,3.80
2019-01-17T22:20:49.558Z,3.80
2019-01-17T22:23:18.963Z,3.40
2019-01-17T22:25:48.431Z,3.40
2019-01-17T22:28:17.847Z,3.77
2019-01-17T22:30:47.269Z,3.60
2019-01-17T22:33:16.715Z,3.73
2019-01-17T22:35:46.190Z,3.97
2019-01-17T22:38:17.221Z,3.57
2019-01-17T22:40:46.902Z,3.40
2019-01-17T22:43:16.316Z,3.70
2019-01-17T22:45:45.725Z,3.60
2019-01-17T22:48:15.119Z,3.90
2019-01-17T22:50:44.636Z,3.47
2019-01-17T22:53:14.115Z,4.30
2019-01-17T22:55:43.524Z,3.57
2019-01-17T22:58:12.904Z,3.90
2019-01-17T23:01:08.697Z,3.67
2019-01-17T23:03:43.690Z,3.20
2019-01-17T23:06:13.163Z,2.80
2019-01-17T23:08:42.571Z,2.80
2019-01-17T23:11:13.703Z,3.40
2019-01-17T23:13:43.168Z,2.73
2019-01-17T23:16:12.647Z,3.43
2019-01-17T23:18:42.227Z,3.20
2019-01-17T23:21:11.645Z,2.97
2019-01-17T23:23:41.038Z,3.17
2019-01-17T23:26:10.453Z,2.67
2019-01-17T23:28:39.861Z,3.10
2019-01-17T23:31:09.275Z,2.67
2019-01-17T23:33:38.736Z,2.60
2019-01-17T23:36:08.306Z,2.67
2019-01-17T23:38:37.874Z,2.43
2019-01-17T23:41:07.422Z,2.50
2019-01-17T23:43:36.832Z,2.23
2019-01-17T23:46:06.250Z,2.10
2019-01-17T23:48:35.676Z,2.40
2019-01-17T23:51:05.156Z,1.83
2019-01-17T23:53:34.602Z,2.00
2019-01-17T23:56:04.174Z,1.97
2019-01-17T23:58:33.574Z,2.00
